Time;durP1;ratioP1;P1;durP2;ratioP2;P2;SDS_P1;SDS_P2;PMS_P1;PMS_P2;Temp;Humidity;BMP_temperature;BMP_pressure;BME280_temperature;BME280_humidity;BME280_pressure;Samples;Min_cycle;Max_cycle;Signal;HPM_P1;HPM_P2
2021/01/04 00:01:35;;;;;;;9.10;7.30;;;1.50;99.90;;;;;;481453;246;27481;-69
2021/01/04 00:03:36;;;;;;;7.90;7.10;;;1.50;99.90;;;;;;481501;246;27523;-70
2021/01/04 00:05:37;;;;;;;8.32;7.03;;;1.50;99.90;;;;;;481525;246;27965;-69
2021/01/04 00:07:39;;;;;;;8.13;7.30;;;1.50;99.90;;;;;;481325;244;28075;-70
2021/01/04 00:09:40;;;;;;;6.93;6.25;;;1.50;99.90;;;;;;481328;246;28102;-70
2021/01/04 00:11:41;;;;;;;7.25;6.45;;;1.50;99.90;;;;;;481267;246;27979;-70
2021/01/04 00:13:42;;;;;;;8.57;7.30;;;1.50;99.90;;;;;;481325;244;27556;-70
2021/01/04 00:15:44;;;;;;;8.10;7.25;;;1.40;99.90;;;;;;481363;246;27571;-70
2021/01/04 00:17:45;;;;;;;7.93;7.12;;;1.40;99.90;;;;;;481339;246;27529;-69
2021/01/04 00:19:46;;;;;;;9.75;7.93;;;1.40;99.90;;;;;;481352;246;27511;-70
2021/01/04 00:21:47;;;;;;;7.37;6.78;;;1.40;99.90;;;;;;481279;246;27610;-69
2021/01/04 00:23:49;;;;;;;8.80;6.78;;;1.50;99.90;;;;;;481345;244;27642;-70
2021/01/04 00:25:50;;;;;;;8.48;7.45;;;1.50;99.90;;;;;;481331;247;27593;-71
2021/01/04 00:27:51;;;;;;;7.87;7.03;;;1.50;99.90;;;;;;481290;244;27536;-70
2021/01/04 00:29:52;;;;;;;9.20;7.20;;;1.60;99.90;;;;;;481277;246;27592;-69
2021/01/04 00:31:54;;;;;;;8.00;7.20;;;1.40;99.90;;;;;;481286;246;27516;-70
2021/01/04 00:33:55;;;;;;;9.15;8.20;;;1.40;99.90;;;;;;481371;246;28006;-69
2021/01/04 00:35:56;;;;;;;8.75;7.12;;;1.40;99.90;;;;;;481392;244;28007;-70
2021/01/04 00:37:57;;;;;;;9.50;7.40;;;1.40;99.90;;;;;;481415;246;27998;-69
2021/01/04 00:39:59;;;;;;;7.97;7.18;;;1.50;99.90;;;;;;481428;246;27985;-70
2021/01/04 00:42:00;;;;;;;8.30;7.12;;;1.40;99.90;;;;;;481356;246;27497;-70
2021/01/04 00:44:01;;;;;;;7.90;7.10;;;1.50;99.90;;;;;;481164;246;27611;-70
2021/01/04 00:46:02;;;;;;;8.05;7.25;;;1.50;99.90;;;;;;481318;246;27516;-71
2021/01/04 00:48:04;;;;;;;9.52;8.00;;;1.50;99.90;;;;;;481290;246;27516;-70
2021/01/04 00:50:05;;;;;;;9.23;7.70;;;1.50;99.90;;;;;;481243;246;27548;-69
2021/01/04 00:52:06;;;;;;;8.15;7.35;;;1.50;99.90;;;;;;481299;246;27544;-70
2021/01/04 00:54:07;;;;;;;8.45;6.85;;;1.50;99.90;;;;;;481332;246;27528;-70
2021/01/04 00:56:09;;;;;;;10.65;8.75;;;1.50;99.90;;;;;;481316;246;27518;-70
2021/01/04 00:58:10;;;;;;;7.75;7.05;;;1.50;99.90;;;;;;481321;246;27511;-70
2021/01/04 01:00:11;;;;;;;8.55;7.65;;;1.60;99.90;;;;;;481283;246;27580;-70
2021/01/04 01:02:12;;;;;;;9.63;8.20;;;1.40;99.90;;;;;;481352;246;28008;-71
2021/01/04 01:04:14;;;;;;;10.05;8.05;;;1.50;99.90;;;;;;481346;246;28805;-69
2021/01/04 01:06:15;;;;;;;12.20;9.07;;;1.50;99.90;;;;;;481329;246;28072;-70
2021/01/04 01:08:16;;;;;;;11.63;7.72;;;1.50;99.90;;;;;;481323;244;27540;-70
2021/01/04 01:10:17;;;;;;;9.10;8.20;;;1.60;99.90;;;;;;481376;246;27514;-69
2021/01/04 01:12:19;;;;;;;9.70;7.40;;;1.50;99.90;;;;;;481462;246;27514;-71
2021/01/04 01:14:20;;;;;;;8.70;7.87;;;1.50;99.90;;;;;;481361;246;27468;-70
2021/01/04 01:16:21;;;;;;;9.13;8.00;;;1.50;99.90;;;;;;481485;246;27589;-69
2021/01/04 01:18:22;;;;;;;9.85;8.70;;;1.40;99.90;;;;;;481505;246;27509;-69
2021/01/04 01:20:24;;;;;;;9.30;8.00;;;1.40;99.90;;;;;;481524;246;27597;-69
2021/01/04 01:22:25;;;;;;;11.30;9.25;;;1.40;99.90;;;;;;481538;246;27510;-70
2021/01/04 01:24:26;;;;;;;9.65;8.30;;;1.50;99.90;;;;;;481555;246;27462;-69
2021/01/04 01:26:27;;;;;;;8.80;7.90;;;1.50;99.90;;;;;;481559;246;28043;-70
2021/01/04 01:28:29;;;;;;;10.57;8.55;;;1.50;99.90;;;;;;481539;246;28156;-69
2021/01/04 01:30:30;;;;;;;8.90;7.82;;;1.50;99.90;;;;;;481526;246;27924;-69
2021/01/04 01:32:31;;;;;;;9.70;8.15;;;1.50;99.90;;;;;;481527;246;28066;-70
2021/01/04 01:34:32;;;;;;;9.32;7.90;;;1.40;99.90;;;;;;481487;246;27502;-69
2021/01/04 01:36:34;;;;;;;14.38;10.48;;;1.40;99.90;;;;;;481433;246;27516;-70
2021/01/04 01:38:35;;;;;;;12.15;10.57;;;1.40;99.90;;;;;;481363;246;27521;-70
2021/01/04 01:40:36;;;;;;;12.18;8.75;;;1.40;99.90;;;;;;481321;246;27597;-69
2021/01/04 01:42:37;;;;;;;19.45;12.55;;;1.30;99.90;;;;;;481385;246;27533;-70
2021/01/04 01:44:39;;;;;;;18.05;11.82;;;1.30;99.90;;;;;;481357;246;27577;-70
2021/01/04 01:46:40;;;;;;;16.05;11.35;;;1.40;99.90;;;;;;481361;246;27988;-70
2021/01/04 01:48:41;;;;;;;11.65;9.35;;;1.40;99.90;;;;;;481326;246;28137;-71
2021/01/04 01:50:42;;;;;;;12.75;9.95;;;1.50;99.90;;;;;;481268;246;27934;-69
2021/01/04 01:52:44;;;;;;;12.60;9.65;;;1.50;99.90;;;;;;481344;246;27609;-70
2021/01/04 01:54:45;;;;;;;12.93;9.88;;;1.50;99.90;;;;;;481339;246;27532;-69
2021/01/04 01:56:46;;;;;;;12.90;10.27;;;1.40;99.90;;;;;;481305;245;27605;-70
2021/01/04 01:58:47;;;;;;;13.27;9.98;;;1.40;99.90;;;;;;481333;246;27591;-70
2021/01/04 02:00:49;;;;;;;13.10;10.35;;;1.50;99.90;;;;;;481300;246;27483;-70
2021/01/04 02:02:50;;;;;;;13.88;10.82;;;1.50;99.90;;;;;;481348;246;27588;-71
2021/01/04 02:04:51;;;;;;;13.05;10.45;;;1.50;99.90;;;;;;481352;246;27988;-71
2021/01/04 02:06:53;;;;;;;15.48;10.73;;;1.60;99.90;;;;;;481398;246;28010;-70
2021/01/04 02:08:54;;;;;;;14.63;10.13;;;1.50;99.90;;;;;;481401;246;27560;-69
2021/01/04 02:10:55;;;;;;;15.07;10.68;;;1.60;99.90;;;;;;481351;246;27483;-69
2021/01/04 02:12:56;;;;;;;14.07;10.88;;;1.50;99.90;;;;;;481347;246;27588;-69
2021/01/04 02:14:58;;;;;;;11.70;10.00;;;1.50;99.90;;;;;;481340;246;27552;-72
2021/01/04 02:16:59;;;;;;;14.95;10.82;;;1.40;99.90;;;;;;481241;246;27615;-70
2021/01/04 02:19:00;;;;;;;15.73;10.73;;;1.30;99.90;;;;;;481317;246;27526;-70
2021/01/04 02:21:01;;;;;;;12.20;9.50;;;1.30;99.90;;;;;;481257;246;28778;-69
2021/01/04 02:23:03;;;;;;;12.27;9.98;;;1.40;99.90;;;;;;481284;246;29828;-69
2021/01/04 02:25:04;;;;;;;13.10;10.20;;;1.40;99.90;;;;;;481331;246;27506;-70
2021/01/04 02:27:05;;;;;;;14.65;10.40;;;1.40;99.90;;;;;;481329;246;27529;-70
2021/01/04 02:29:06;;;;;;;15.48;11.57;;;1.50;99.90;;;;;;481336;246;27517;-70
2021/01/04 02:31:08;;;;;;;12.32;10.05;;;1.50;99.90;;;;;;481298;246;27954;-70
2021/01/04 02:33:09;;;;;;;14.23;10.48;;;1.50;99.90;;;;;;481364;246;27478;-69
2021/01/04 02:35:10;;;;;;;14.02;10.48;;;1.50;99.90;;;;;;481327;246;27625;-70
2021/01/04 02:37:11;;;;;;;13.27;10.50;;;1.50;99.90;;;;;;481336;246;28076;-70
2021/01/04 02:39:13;;;;;;;14.95;11.50;;;1.60;99.90;;;;;;481311;246;27929;-69
2021/01/04 02:41:14;;;;;;;15.02;11.25;;;1.50;99.90;;;;;;481277;246;27611;-70
2021/01/04 02:43:15;;;;;;;15.70;11.20;;;1.60;99.90;;;;;;481353;246;27504;-70
2021/01/04 02:45:16;;;;;;;13.75;10.20;;;1.40;99.90;;;;;;481396;246;27528;-69
2021/01/04 02:47:18;;;;;;;18.00;11.68;;;1.40;99.90;;;;;;481363;246;27555;-70
2021/01/04 02:49:19;;;;;;;13.68;10.15;;;1.50;99.90;;;;;;481330;247;27502;-70
2021/01/04 02:51:20;;;;;;;14.98;10.60;;;1.50;99.90;;;;;;481267;246;27580;-69
2021/01/04 02:53:21;;;;;;;14.00;10.70;;;1.50;99.90;;;;;;481366;246;28068;-69
2021/01/04 02:55:23;;;;;;;13.38;10.13;;;1.60;99.90;;;;;;481375;246;28137;-69
2021/01/04 02:57:24;;;;;;;14.20;10.82;;;1.50;99.90;;;;;;481453;246;27596;-71
2021/01/04 02:59:25;;;;;;;14.15;10.43;;;1.50;99.90;;;;;;481462;246;27581;-70
2021/01/04 03:01:26;;;;;;;12.85;10.30;;;1.50;99.90;;;;;;481395;246;27521;-70
2021/01/04 03:03:28;;;;;;;13.18;9.68;;;1.50;99.90;;;;;;481534;246;27518;-69
2021/01/04 03:05:29;;;;;;;13.65;10.73;;;1.60;99.90;;;;;;481466;246;27523;-69
2021/01/04 03:07:30;;;;;;;13.13;10.05;;;1.60;99.90;;;;;;481401;246;27616;-71
2021/01/04 03:09:31;;;;;;;14.48;10.63;;;1.70;99.90;;;;;;481386;246;28044;-69
2021/01/04 03:11:33;;;;;;;13.77;10.02;;;1.50;99.90;;;;;;481304;246;28007;-70
2021/01/04 03:13:34;;;;;;;14.20;10.05;;;1.50;99.90;;;;;;481357;246;27575;-70
2021/01/04 03:15:35;;;;;;;12.95;9.82;;;1.50;99.90;;;;;;481291;246;27620;-69
2021/01/04 03:17:37;;;;;;;12.88;9.80;;;1.50;99.90;;;;;;481372;246;27581;-71
2021/01/04 03:19:38;;;;;;;13.65;9.95;;;1.60;99.90;;;;;;481336;246;27512;-69
2021/01/04 03:21:39;;;;;;;16.27;10.90;;;1.60;99.90;;;;;;481272;246;27613;-70
2021/01/04 03:23:40;;;;;;;15.00;11.10;;;1.50;99.90;;;;;;481330;246;27567;-70
2021/01/04 03:25:41;;;;;;;12.70;10.00;;;1.60;99.90;;;;;;481307;246;27980;-70
2021/01/04 03:27:43;;;;;;;14.00;10.38;;;1.60;99.90;;;;;;481339;246;28128;-71
2021/01/04 03:29:44;;;;;;;13.57;9.85;;;1.60;99.90;;;;;;481335;246;27481;-69
2021/01/04 03:31:45;;;;;;;14.55;10.68;;;1.50;99.90;;;;;;481270;246;27608;-70
2021/01/04 03:33:47;;;;;;;14.48;10.93;;;1.50;99.90;;;;;;481346;246;27501;-71
2021/01/04 03:35:48;;;;;;;14.57;10.00;;;1.50;99.90;;;;;;481437;246;27533;-70
2021/01/04 03:37:49;;;;;;;12.85;9.93;;;1.40;99.90;;;;;;481423;246;27611;-70
2021/01/04 03:39:50;;;;;;;17.23;12.57;;;1.30;99.90;;;;;;481420;246;27633;-69
2021/01/04 03:41:52;;;;;;;15.52;11.27;;;1.30;99.90;;;;;;481327;246;28045;-70
2021/01/04 03:43:53;;;;;;;14.45;10.32;;;1.40;99.90;;;;;;481374;246;28000;-70
2021/01/04 03:45:54;;;;;;;14.10;10.43;;;1.40;99.90;;;;;;481342;246;27618;-69
2021/01/04 03:47:55;;;;;;;16.40;11.90;;;1.40;99.90;;;;;;481281;246;27521;-71
2021/01/04 03:49:57;;;;;;;19.87;12.57;;;1.40;99.90;;;;;;481322;246;27628;-72
2021/01/04 03:51:58;;;;;;;18.48;12.88;;;1.30;99.90;;;;;;481285;246;27591;-70
2021/01/04 03:53:59;;;;;;;17.20;11.63;;;1.30;99.90;;;;;;481294;246;27531;-70
2021/01/04 03:56:00;;;;;;;18.58;12.20;;;1.40;99.90;;;;;;481296;246;27580;-70
2021/01/04 03:58:02;;;;;;;15.07;10.93;;;1.30;99.90;;;;;;481308;246;27980;-70
2021/01/04 04:00:03;;;;;;;19.83;12.95;;;1.30;99.90;;;;;;481274;246;28107;-70
2021/01/04 04:02:04;;;;;;;21.20;13.57;;;1.30;99.90;;;;;;481312;247;27540;-70
2021/01/04 04:04:05;;;;;;;19.20;12.00;;;1.40;99.90;;;;;;481302;246;27517;-69
2021/01/04 04:06:07;;;;;;;19.50;13.85;;;1.50;99.90;;;;;;481344;246;27548;-70
2021/01/04 04:08:08;;;;;;;18.00;11.85;;;1.30;99.90;;;;;;481333;246;27992;-72
2021/01/04 04:10:09;;;;;;;19.33;12.23;;;1.30;99.90;;;;;;481252;246;27626;-70
2021/01/04 04:12:10;;;;;;;22.17;13.57;;;1.30;99.90;;;;;;481321;246;27991;-70
2021/01/04 04:14:12;;;;;;;20.30;13.18;;;1.40;99.90;;;;;;481298;246;29213;-69
2021/01/04 04:16:13;;;;;;;20.00;13.20;;;1.50;99.90;;;;;;481345;246;27544;-71
2021/01/04 04:18:14;;;;;;;20.08;13.50;;;1.60;99.90;;;;;;481428;246;27564;-69
2021/01/04 04:20:15;;;;;;;19.00;12.65;;;1.60;99.90;;;;;;481327;246;27526;-70
2021/01/04 04:22:17;;;;;;;21.98;13.57;;;1.70;99.90;;;;;;481324;246;27519;-73
2021/01/04 04:24:18;;;;;;;20.62;13.62;;;1.60;99.90;;;;;;481308;246;27623;-70
2021/01/04 04:26:19;;;;;;;20.60;12.45;;;1.60;99.90;;;;;;481348;246;27616;-70
2021/01/04 04:28:20;;;;;;;21.62;13.18;;;1.50;99.90;;;;;;481343;246;27928;-70
2021/01/04 04:30:22;;;;;;;21.45;13.45;;;1.40;99.90;;;;;;481262;246;28094;-70
2021/01/04 04:32:23;;;;;;;21.62;14.07;;;1.40;99.90;;;;;;481405;246;27586;-72
2021/01/04 04:34:24;;;;;;;20.27;13.38;;;1.50;99.90;;;;;;481445;246;27558;-69
2021/01/04 04:36:25;;;;;;;20.05;13.35;;;1.50;99.90;;;;;;481486;246;27529;-70
2021/01/04 04:38:27;;;;;;;21.77;13.20;;;1.50;99.90;;;;;;481507;246;27490;-69
2021/01/04 04:40:28;;;;;;;20.17;12.30;;;1.60;99.90;;;;;;481459;246;27522;-70
2021/01/04 04:42:29;;;;;;;21.80;12.75;;;1.60;99.90;;;;;;481537;246;27631;-72
2021/01/04 04:44:30;;;;;;;17.35;12.05;;;1.60;99.90;;;;;;481549;246;28097;-70
2021/01/04 04:46:32;;;;;;;18.87;12.02;;;1.60;99.90;;;;;;481552;246;27995;-70
2021/01/04 04:48:33;;;;;;;22.20;14.05;;;1.60;99.90;;;;;;481519;246;27605;-69
2021/01/04 04:50:34;;;;;;;18.50;12.13;;;1.60;99.90;;;;;;481487;246;27593;-69
2021/01/04 04:52:36;;;;;;;20.60;13.57;;;1.60;99.90;;;;;;481490;246;27528;-71
2021/01/04 04:54:37;;;;;;;19.15;12.05;;;1.60;99.90;;;;;;481490;246;27581;-69
2021/01/04 04:56:38;;;;;;;22.98;13.50;;;1.70;99.90;;;;;;481332;247;27579;-70
2021/01/04 04:58:39;;;;;;;20.30;12.63;;;1.50;99.90;;;;;;481366;246;28074;-69
2021/01/04 05:00:41;;;;;;;20.83;12.68;;;1.50;99.90;;;;;;481318;246;28146;-69
2021/01/04 05:02:42;;;;;;;23.50;13.10;;;1.50;99.90;;;;;;481406;246;27555;-71
2021/01/04 05:04:43;;;;;;;22.92;13.25;;;1.40;99.90;;;;;;481393;246;27479;-69
2021/01/04 05:06:44;;;;;;;21.52;13.60;;;1.50;99.90;;;;;;481411;246;27551;-70
2021/01/04 05:08:46;;;;;;;22.95;14.02;;;1.50;99.90;;;;;;481437;246;27526;-70
2021/01/04 05:10:47;;;;;;;20.62;12.45;;;1.50;99.90;;;;;;481416;246;27545;-70
2021/01/04 05:12:48;;;;;;;23.52;13.15;;;1.40;99.90;;;;;;481410;246;27508;-71
2021/01/04 05:14:49;;;;;;;24.75;13.15;;;1.30;99.90;;;;;;481450;246;27922;-70
2021/01/04 05:16:51;;;;;;;26.70;15.07;;;1.30;99.90;;;;;;481403;244;27991;-70
2021/01/04 05:18:52;;;;;;;24.27;13.90;;;1.20;99.90;;;;;;481382;246;27502;-69
2021/01/04 05:20:53;;;;;;;24.83;14.15;;;1.20;99.90;;;;;;481268;246;27635;-69
2021/01/04 05:22:54;;;;;;;26.05;15.05;;;1.10;99.90;;;;;;481428;246;27484;-69
2021/01/04 05:24:56;;;;;;;27.00;15.57;;;1.10;99.90;;;;;;481391;246;27601;-69
2021/01/04 05:26:57;;;;;;;25.58;15.13;;;1.10;99.90;;;;;;481338;247;27520;-69
2021/01/04 05:28:58;;;;;;;26.27;14.80;;;1.20;99.90;;;;;;481345;246;27518;-70
2021/01/04 05:30:59;;;;;;;25.77;14.32;;;1.20;99.90;;;;;;481262;246;28032;-70
2021/01/04 05:33:01;;;;;;;24.17;14.32;;;1.20;99.90;;;;;;481319;246;28831;-70
2021/01/04 05:35:02;;;;;;;26.83;15.00;;;1.20;99.90;;;;;;481328;246;27639;-71
2021/01/04 05:37:03;;;;;;;26.25;14.27;;;1.30;99.90;;;;;;481256;246;27516;-70
2021/01/04 05:39:04;;;;;;;24.65;15.35;;;1.40;99.90;;;;;;483627;245;27511;-70
2021/01/04 05:41:06;;;;;;;24.25;14.20;;;1.40;99.90;;;;;;473163;250;27542;-70
2021/01/04 05:43:07;;;;;;;27.20;15.05;;;1.40;99.90;;;;;;480310;247;27387;-70
2021/01/04 05:45:08;;;;;;;26.20;13.10;;;1.50;99.90;;;;;;480320;247;27446;-70
2021/01/04 05:47:09;;;;;;;25.15;13.50;;;1.60;99.90;;;;;;480322;247;27901;-69
2021/01/04 05:49:11;;;;;;;27.75;15.15;;;1.60;99.90;;;;;;480304;243;28002;-69
2021/01/04 05:51:12;;;;;;;37.05;17.25;;;1.60;99.90;;;;;;480310;247;27422;-70
2021/01/04 05:53:13;;;;;;;26.65;13.48;;;1.60;99.90;;;;;;480386;247;27423;-69
2021/01/04 05:55:15;;;;;;;26.87;15.02;;;1.50;99.90;;;;;;480348;247;27442;-70
2021/01/04 05:57:16;;;;;;;32.95;15.82;;;1.50;99.90;;;;;;480334;247;27458;-71
2021/01/04 05:59:17;;;;;;;28.73;15.07;;;1.40;99.90;;;;;;480349;247;27427;-70
2021/01/04 06:01:18;;;;;;;37.30;16.23;;;1.40;99.90;;;;;;480445;247;27901;-70
2021/01/04 06:03:19;;;;;;;36.28;16.85;;;1.20;99.90;;;;;;480523;247;28660;-69
2021/01/04 06:05:21;;;;;;;33.38;16.70;;;1.20;99.90;;;;;;480492;247;27419;-70
2021/01/04 06:07:22;;;;;;;32.90;16.40;;;1.40;99.90;;;;;;480429;245;27518;-70
2021/01/04 06:09:23;;;;;;;30.12;16.80;;;1.40;99.90;;;;;;480454;247;27491;-69
2021/01/04 06:11:25;;;;;;;30.17;16.35;;;1.50;99.90;;;;;;480394;247;27461;-71
2021/01/04 06:13:26;;;;;;;30.67;15.43;;;1.50;99.90;;;;;;480447;247;27519;-70
2021/01/04 06:15:27;;;;;;;25.17;14.27;;;1.60;99.90;;;;;;480382;247;27513;-70
2021/01/04 06:17:28;;;;;;;34.55;16.25;;;1.60;99.90;;;;;;480569;247;28085;-72
2021/01/04 06:19:30;;;;;;;33.38;15.85;;;1.60;99.90;;;;;;480581;247;27929;-69
2021/01/04 06:21:31;;;;;;;34.15;17.75;;;1.60;99.90;;;;;;480555;247;27485;-70
2021/01/04 06:23:32;;;;;;;40.20;17.05;;;1.60;99.90;;;;;;480586;247;27376;-69
2021/01/04 06:25:33;;;;;;;32.72;16.55;;;1.50;99.90;;;;;;480565;247;27506;-69
2021/01/04 06:27:35;;;;;;;36.83;18.33;;;1.50;99.90;;;;;;480539;247;27534;-70
2021/01/04 06:29:36;;;;;;;30.30;15.27;;;1.50;99.90;;;;;;480508;247;27465;-69
2021/01/04 06:31:37;;;;;;;33.92;16.35;;;1.60;99.90;;;;;;480463;247;27434;-70
2021/01/04 06:33:38;;;;;;;27.50;15.77;;;1.60;99.90;;;;;;480453;247;28077;-70
2021/01/04 06:35:40;;;;;;;29.73;16.65;;;1.60;99.90;;;;;;480405;247;27896;-70
2021/01/04 06:37:41;;;;;;;27.00;13.93;;;1.70;99.90;;;;;;480423;247;27435;-71
2021/01/04 06:39:42;;;;;;;28.83;14.40;;;1.50;99.90;;;;;;480409;247;27395;-69
2021/01/04 06:41:43;;;;;;;27.23;14.80;;;1.60;99.90;;;;;;480403;247;27510;-70
2021/01/04 06:43:45;;;;;;;26.02;14.25;;;1.40;99.90;;;;;;480440;247;27799;-71
2021/01/04 06:45:46;;;;;;;27.45;14.98;;;1.50;99.90;;;;;;480502;247;27487;-69
2021/01/04 06:47:47;;;;;;;25.60;13.13;;;1.30;99.90;;;;;;480512;247;27906;-70
2021/01/04 06:49:48;;;;;;;27.98;14.48;;;1.30;99.90;;;;;;480479;247;27992;-69
2021/01/04 06:51:50;;;;;;;32.08;15.85;;;1.30;99.90;;;;;;480385;247;27403;-69
2021/01/04 06:53:51;;;;;;;28.45;15.73;;;1.30;99.90;;;;;;480416;247;27539;-70
2021/01/04 06:55:52;;;;;;;28.38;14.90;;;1.30;99.90;;;;;;480408;247;27430;-70
2021/01/04 06:57:53;;;;;;;36.63;17.30;;;1.20;99.90;;;;;;480387;247;27450;-71
2021/01/04 06:59:55;;;;;;;37.45;16.85;;;1.20;99.90;;;;;;480404;247;27426;-70
2021/01/04 07:01:56;;;;;;;32.10;16.85;;;1.20;99.90;;;;;;480346;247;27426;-69
2021/01/04 07:03:57;;;;;;;31.15;16.58;;;1.20;99.90;;;;;;480352;247;28006;-70
2021/01/04 07:05:58;;;;;;;36.45;17.48;;;1.30;99.90;;;;;;480403;247;27917;-71
2021/01/04 07:08:00;;;;;;;32.67;15.95;;;1.30;99.90;;;;;;480403;245;27434;-70
2021/01/04 07:10:01;;;;;;;33.13;16.50;;;1.20;99.90;;;;;;480395;246;27514;-71
2021/01/04 07:12:02;;;;;;;39.33;16.90;;;1.20;99.90;;;;;;480403;247;27537;-69
2021/01/04 07:14:03;;;;;;;36.00;16.10;;;1.10;99.90;;;;;;480379;247;27521;-69
2021/01/04 07:16:05;;;;;;;33.05;15.65;;;1.20;99.90;;;;;;480396;247;27457;-69
2021/01/04 07:18:06;;;;;;;42.60;18.15;;;1.10;99.90;;;;;;480389;247;27458;-71
2021/01/04 07:20:07;;;;;;;49.03;17.50;;;1.20;99.90;;;;;;480344;247;27913;-70
2021/01/04 07:22:09;;;;;;;51.90;19.17;;;1.10;99.90;;;;;;480361;247;27929;-69
2021/01/04 07:24:10;;;;;;;42.25;16.92;;;1.20;99.90;;;;;;480383;247;27523;-70
2021/01/04 07:26:11;;;;;;;45.65;17.40;;;1.10;99.90;;;;;;480393;247;27430;-70
2021/01/04 07:28:12;;;;;;;40.30;16.80;;;1.20;99.90;;;;;;480413;247;27407;-70
2021/01/04 07:30:14;;;;;;;38.05;17.55;;;1.30;99.90;;;;;;480285;247;27506;-70
2021/01/04 07:32:15;;;;;;;72.25;18.67;;;1.40;99.90;;;;;;480299;247;27426;-70
2021/01/04 07:34:16;;;;;;;39.10;16.70;;;1.40;99.90;;;;;;480315;247;27921;-70
2021/01/04 07:36:18;;;;;;;55.30;18.05;;;1.30;99.90;;;;;;480349;247;27933;-71
2021/01/04 07:38:19;;;;;;;39.88;16.40;;;1.30;99.90;;;;;;480361;246;28039;-71
2021/01/04 07:40:20;;;;;;;43.50;17.05;;;1.30;99.90;;;;;;480336;246;27429;-70
2021/01/04 07:42:21;;;;;;;32.55;15.48;;;1.40;99.90;;;;;;480389;247;27431;-70
2021/01/04 07:44:22;;;;;;;39.58;17.52;;;1.30;99.90;;;;;;480481;247;27397;-70
2021/01/04 07:46:24;;;;;;;38.60;16.80;;;1.40;99.90;;;;;;480435;247;27514;-69
2021/01/04 07:48:25;;;;;;;40.83;17.30;;;1.40;99.90;;;;;;480322;247;27537;-71
2021/01/04 07:50:26;;;;;;;36.40;17.08;;;1.40;99.90;;;;;;480304;243;27918;-70
2021/01/04 07:52:27;;;;;;;32.08;15.65;;;1.20;99.90;;;;;;480401;247;28016;-71
2021/01/04 07:54:29;;;;;;;37.70;17.10;;;1.20;99.90;;;;;;480396;247;27430;-69
2021/01/04 07:56:30;;;;;;;32.63;15.40;;;1.40;99.90;;;;;;480387;247;27530;-70
2021/01/04 07:58:31;;;;;;;34.38;16.02;;;1.40;99.90;;;;;;480362;247;27539;-69
2021/01/04 08:00:32;;;;;;;33.45;15.05;;;1.50;99.90;;;;;;480345;245;27494;-69
2021/01/04 08:02:34;;;;;;;30.33;15.65;;;1.50;99.90;;;;;;480414;247;27528;-71
2021/01/04 08:04:35;;;;;;;30.50;15.40;;;1.60;99.90;;;;;;480397;247;27426;-69
2021/01/04 08:06:36;;;;;;;26.58;14.30;;;1.70;99.90;;;;;;480457;247;27881;-69
2021/01/04 08:08:37;;;;;;;32.03;15.57;;;1.60;99.90;;;;;;480467;247;28808;-70
2021/01/04 08:10:39;;;;;;;27.08;14.20;;;1.50;99.90;;;;;;480527;247;27498;-69
2021/01/04 08:12:40;;;;;;;31.15;15.38;;;1.50;99.90;;;;;;480582;247;27506;-70
2021/01/04 08:14:41;;;;;;;30.62;15.18;;;1.60;99.90;;;;;;480586;247;27382;-70
2021/01/04 08:16:42;;;;;;;24.85;14.32;;;1.50;99.90;;;;;;480601;247;27434;-70
2021/01/04 08:18:44;;;;;;;26.20;13.88;;;1.30;99.90;;;;;;480587;247;27772;-72
2021/01/04 08:20:45;;;;;;;29.20;14.13;;;1.40;99.90;;;;;;480561;247;27391;-70
2021/01/04 08:22:46;;;;;;;33.38;15.60;;;1.40;99.90;;;;;;480600;247;27930;-71
2021/01/04 08:24:47;;;;;;;30.42;15.38;;;1.30;99.90;;;;;;480441;247;27849;-69
2021/01/04 08:26:49;;;;;;;29.58;15.20;;;1.40;99.90;;;;;;479974;247;27535;-69
2021/01/04 08:28:50;;;;;;;28.83;15.25;;;1.40;99.90;;;;;;480392;247;27524;-70
2021/01/04 08:30:52;;;;;;;32.65;16.20;;;1.50;99.90;;;;;;480485;247;27410;-70
2021/01/04 08:32:52;;;;;;;31.08;16.50;;;1.40;99.90;;;;;;480523;247;28004;-71
2021/01/04 08:34:54;;;;;;;34.90;16.42;;;1.30;99.90;;;;;;480394;247;27417;-69
2021/01/04 08:36:55;;;;;;;29.20;15.40;;;1.30;99.90;;;;;;480402;247;27886;-70
2021/01/04 08:38:56;;;;;;;35.30;16.55;;;1.30;99.90;;;;;;480373;247;27936;-70
2021/01/04 08:40:58;;;;;;;31.00;15.80;;;1.30;99.90;;;;;;480335;247;27415;-69
2021/01/04 08:42:59;;;;;;;36.58;18.33;;;1.40;99.90;;;;;;480443;247;27536;-71
2021/01/04 08:45:00;;;;;;;41.75;19.58;;;1.30;99.90;;;;;;480412;247;27517;-71
2021/01/04 08:47:01;;;;;;;41.47;18.30;;;1.20;99.90;;;;;;480374;247;27403;-70
2021/01/04 08:49:03;;;;;;;36.00;19.50;;;1.30;99.90;;;;;;480395;246;27557;-70
2021/01/04 08:51:04;;;;;;;34.70;17.73;;;1.40;99.90;;;;;;480375;247;27422;-70
2021/01/04 08:53:05;;;;;;;35.35;18.23;;;1.40;99.90;;;;;;480398;246;28783;-69
2021/01/04 08:55:06;;;;;;;33.20;17.20;;;1.40;99.90;;;;;;480418;247;27960;-71
2021/01/04 08:57:08;;;;;;;34.78;17.85;;;1.50;99.90;;;;;;480407;247;27501;-71
2021/01/04 08:59:09;;;;;;;35.67;19.37;;;1.50;99.90;;;;;;480397;247;27537;-71
2021/01/04 09:01:10;;;;;;;41.03;19.77;;;1.40;99.90;;;;;;480364;247;27430;-70
2021/01/04 09:03:11;;;;;;;32.33;17.85;;;1.40;99.90;;;;;;480437;247;27488;-69
2021/01/04 09:05:13;;;;;;;41.65;20.88;;;1.30;99.90;;;;;;480407;247;27430;-70
2021/01/04 09:07:14;;;;;;;33.35;18.15;;;1.40;99.90;;;;;;480446;247;27418;-70
2021/01/04 09:09:15;;;;;;;35.15;18.02;;;1.50;99.90;;;;;;480411;247;28002;-70
2021/01/04 09:11:16;;;;;;;36.28;19.92;;;1.40;99.90;;;;;;480445;245;27928;-69
2021/01/04 09:13:18;;;;;;;40.10;19.50;;;1.50;99.90;;;;;;480540;247;27378;-70
2021/01/04 09:15:19;;;;;;;34.70;18.42;;;1.50;99.90;;;;;;474941;250;27468;-70
2021/01/04 09:17:20;;;;;;;34.53;18.33;;;1.50;99.90;;;;;;474877;250;27828;-70
2021/01/04 09:19:21;;;;;;;35.80;18.35;;;1.40;99.90;;;;;;481411;247;27575;-69
2021/01/04 09:21:23;;;;;;;35.38;18.45;;;1.50;99.90;;;;;;481498;246;27624;-70
2021/01/04 09:23:24;;;;;;;35.45;19.55;;;1.60;99.90;;;;;;481537;246;27911;-70
2021/01/04 09:25:25;;;;;;;39.05;19.75;;;1.60;99.90;;;;;;481516;246;27975;-70
2021/01/04 09:27:26;;;;;;;36.45;19.42;;;1.50;99.90;;;;;;481474;246;28196;-69
2021/01/04 09:29:28;;;;;;;36.45;18.80;;;1.60;99.90;;;;;;481484;246;27506;-69
2021/01/04 09:31:29;;;;;;;28.30;16.02;;;1.60;99.90;;;;;;481400;246;27600;-71
2021/01/04 09:33:30;;;;;;;36.72;19.25;;;1.50;99.90;;;;;;481404;244;27480;-70
2021/01/04 09:35:31;;;;;;;30.50;17.40;;;1.40;99.90;;;;;;481343;246;27546;-70
2021/01/04 09:37:34;;;;;;;32.88;18.05;;;1.50;99.90;;;;;;483695;245;27523;-71
2021/01/04 09:39:34;;;;;;;32.05;18.05;;;1.50;99.90;;;;;;473298;249;27989;-69
2021/01/04 09:41:35;;;;;;;33.70;16.95;;;1.40;99.90;;;;;;480398;247;28005;-70
2021/01/04 09:43:36;;;;;;;30.17;16.37;;;1.50;99.90;;;;;;480369;247;27371;-69
2021/01/04 09:45:38;;;;;;;33.40;18.17;;;1.40;99.90;;;;;;480381;247;27423;-69
2021/01/04 09:47:39;;;;;;;34.05;19.20;;;1.50;99.90;;;;;;480403;247;27470;-70
2021/01/04 09:49:40;;;;;;;31.90;17.12;;;1.50;99.90;;;;;;480430;247;27443;-70
2021/01/04 09:51:41;;;;;;;32.15;19.10;;;1.60;99.90;;;;;;480398;247;27783;-71
2021/01/04 09:53:44;;;;;;;31.58;18.55;;;1.70;99.90;;;;;;480450;247;27430;-71
2021/01/04 09:55:44;;;;;;;37.53;20.33;;;1.70;99.90;;;;;;480377;247;27902;-70
2021/01/04 09:57:45;;;;;;;37.05;18.77;;;1.70;99.90;;;;;;480502;247;27906;-70
2021/01/04 09:59:47;;;;;;;39.35;21.00;;;1.70;99.90;;;;;;480497;247;27474;-70
2021/01/04 10:01:48;;;;;;;42.30;22.75;;;1.70;99.90;;;;;;480462;247;27514;-70
2021/01/04 10:03:49;;;;;;;39.10;21.95;;;1.60;99.90;;;;;;480502;247;27525;-70
2021/01/04 10:05:50;;;;;;;38.78;21.00;;;1.50;99.90;;;;;;480467;247;27391;-70
2021/01/04 10:07:52;;;;;;;41.45;21.12;;;1.60;99.90;;;;;;480404;247;27426;-69
2021/01/04 10:09:53;;;;;;;38.13;19.87;;;1.60;99.90;;;;;;480382;247;27952;-70
2021/01/04 10:11:54;;;;;;;38.28;19.35;;;1.70;99.90;;;;;;480378;247;28679;-70
2021/01/04 10:13:55;;;;;;;33.08;19.20;;;1.70;99.90;;;;;;480387;247;27425;-71
2021/01/04 10:15:57;;;;;;;31.65;18.62;;;1.70;99.90;;;;;;480411;247;27486;-70
2021/01/04 10:17:58;;;;;;;37.00;19.92;;;1.70;99.90;;;;;;480416;246;27506;-70
2021/01/04 10:19:59;;;;;;;38.17;20.42;;;1.70;99.90;;;;;;480401;247;27426;-70
2021/01/04 10:22:00;;;;;;;38.17;19.35;;;1.70;99.90;;;;;;480424;247;27425;-70
2021/01/04 10:24:03;;;;;;;36.95;19.10;;;1.70;99.90;;;;;;480409;247;27435;-70
2021/01/04 10:26:03;;;;;;;33.35;19.52;;;1.70;99.90;;;;;;480300;247;27987;-70